Time;durP1;ratioP1;P1;durP2;ratioP2;P2;SDS_P1;SDS_P2;PMS_P1;PMS_P2;Temp;Humidity;BMP_temperature;BMP_pressure;BME280_temperature;BME280_humidity;BME280_pressure;Samples;Min_cycle;Max_cycle;Signal;HPM_P1;HPM_P2
2021/10/11 00:00:45;;;;;;;26.55;14.32;;;5.50;81.20;;;;;;4995910;28;20057;-75
2021/10/11 00:03:10;;;;;;;25.50;14.05;;;5.50;81.20;;;;;;5012757;28;20026;-75
2021/10/11 00:05:36;;;;;;;25.15;14.80;;;5.60;81.10;;;;;;4996458;28;20578;-75
2021/10/11 00:08:02;;;;;;;25.83;14.00;;;5.60;81.00;;;;;;4996333;28;20117;-75
2021/10/11 00:10:29;;;;;;;26.02;14.88;;;5.60;80.80;;;;;;4996317;28;20057;-75
2021/10/11 00:12:55;;;;;;;20.33;12.82;;;5.70;80.40;;;;;;5013883;28;20486;-75
2021/10/11 00:15:24;;;;;;;22.00;13.60;;;5.80;80.20;;;;;;4996263;28;20418;-75
2021/10/11 00:17:50;;;;;;;22.63;13.55;;;5.80;79.60;;;;;;4996412;28;20045;-75
2021/10/11 00:20:17;;;;;;;26.35;14.77;;;5.80;79.40;;;;;;5013971;28;20109;-75
2021/10/11 00:22:42;;;;;;;27.45;14.98;;;5.80;79.20;;;;;;4996249;28;20056;-75
2021/10/11 00:25:10;;;;;;;24.88;14.73;;;5.80;79.00;;;;;;4996604;28;20026;-75
2021/10/11 00:27:36;;;;;;;26.52;14.77;;;5.70;79.30;;;;;;4996376;28;20025;-75
2021/10/11 00:30:05;;;;;;;22.63;13.88;;;5.80;79.40;;;;;;4997230;28;20018;-75
2021/10/11 00:32:31;;;;;;;24.88;15.13;;;5.70;79.50;;;;;;5005098;28;20037;-75
2021/10/11 00:34:56;;;;;;;25.42;15.50;;;5.70;79.60;;;;;;5007793;28;20029;-75
2021/10/11 00:37:22;;;;;;;28.05;16.33;;;5.60;79.70;;;;;;5003537;28;20038;-75
2021/10/11 00:39:47;;;;;;;26.63;16.35;;;5.60;80.30;;;;;;4998057;28;20517;-75
2021/10/11 00:42:13;;;;;;;26.45;16.48;;;5.50;80.80;;;;;;4996145;28;20430;-74
2021/10/11 00:44:39;;;;;;;27.10;15.93;;;5.40;81.50;;;;;;5014126;28;20022;-75
2021/10/11 00:47:05;;;;;;;30.92;17.15;;;5.30;81.80;;;;;;4996278;28;20034;-75
2021/10/11 00:49:31;;;;;;;26.75;15.60;;;5.30;81.90;;;;;;4996790;28;20037;-74
2021/10/11 00:51:57;;;;;;;30.83;17.23;;;5.40;82.00;;;;;;5014595;28;20048;-75
2021/10/11 00:54:26;;;;;;;28.45;16.15;;;5.30;81.80;;;;;;4997183;28;20022;-75
2021/10/11 00:56:52;;;;;;;32.08;16.05;;;5.30;81.80;;;;;;5015563;28;20494;-74
2021/10/11 00:59:18;;;;;;;30.98;17.40;;;5.30;81.80;;;;;;5003335;28;20029;-74
2021/10/11 01:01:43;;;;;;;28.75;16.50;;;5.20;82.00;;;;;;5015806;28;20080;-74
2021/10/11 01:04:09;;;;;;;32.58;17.95;;;5.10;82.20;;;;;;5014512;28;20026;-74
2021/10/11 01:06:39;;;;;;;32.40;17.27;;;5.00;82.50;;;;;;5011756;28;20056;-73
2021/10/11 01:09:07;;;;;;;30.38;16.63;;;5.00;82.80;;;;;;5014981;28;20045;-76
2021/10/11 01:11:33;;;;;;;32.42;17.38;;;5.00;82.80;;;;;;5012135;28;20042;-74
2021/10/11 01:13:59;;;;;;;28.15;16.95;;;5.00;82.80;;;;;;5004086;28;20085;-74
2021/10/11 01:16:25;;;;;;;30.80;16.60;;;5.00;82.80;;;;;;5018640;28;20046;-74
2021/10/11 01:18:50;;;;;;;30.92;16.30;;;4.90;82.70;;;;;;4998700;28;20053;-74
2021/10/11 01:21:16;;;;;;;29.38;16.30;;;4.90;82.30;;;;;;4995759;28;20371;-74
2021/10/11 01:23:41;;;;;;;29.60;16.38;;;4.80;82.40;;;;;;4994935;28;20026;-73
2021/10/11 01:26:07;;;;;;;29.10;16.05;;;4.80;82.50;;;;;;4994972;28;20036;-73
2021/10/11 01:28:33;;;;;;;27.70;16.10;;;4.80;82.80;;;;;;4995222;28;20022;-73
2021/10/11 01:30:59;;;;;;;26.58;14.55;;;4.80;83.70;;;;;;4995177;28;20402;-74
2021/10/11 01:33:25;;;;;;;36.55;17.40;;;4.70;83.00;;;;;;4995112;28;20108;-74
2021/10/11 01:35:50;;;;;;;30.65;17.00;;;4.80;83.20;;;;;;4995016;28;20164;-75
2021/10/11 01:38:16;;;;;;;26.98;16.27;;;4.80;83.10;;;;;;4994869;28;20030;-74
2021/10/11 01:40:41;;;;;;;27.80;16.23;;;4.80;83.00;;;;;;4994690;28;20057;-74
2021/10/11 01:43:09;;;;;;;31.95;17.33;;;4.80;83.00;;;;;;5012539;28;20042;-74
2021/10/11 01:45:35;;;;;;;31.70;17.77;;;4.70;83.40;;;;;;4995135;28;20049;-73
2021/10/11 01:48:03;;;;;;;32.88;17.92;;;4.70;84.00;;;;;;5012571;28;20503;-74
2021/10/11 01:50:29;;;;;;;30.20;17.40;;;4.70;84.00;;;;;;4994928;28;20030;-74
2021/10/11 01:52:54;;;;;;;32.88;17.55;;;4.70;83.60;;;;;;4994912;28;20450;-75
2021/10/11 01:55:20;;;;;;;33.88;17.33;;;4.70;83.50;;;;;;4994595;28;20018;-74
2021/10/11 01:57:46;;;;;;;31.15;17.75;;;4.80;83.60;;;;;;4978426;28;20548;-74
2021/10/11 02:00:12;;;;;;;34.67;18.00;;;4.80;83.20;;;;;;4994791;28;20022;-73
2021/10/11 02:02:39;;;;;;;30.52;17.15;;;4.70;83.50;;;;;;4994815;28;20129;-74
2021/10/11 02:05:06;;;;;;;30.00;17.38;;;4.80;83.50;;;;;;4994813;28;20022;-75
2021/10/11 02:07:31;;;;;;;28.70;17.83;;;4.70;83.70;;;;;;4994409;28;20117;-74
2021/10/11 02:09:57;;;;;;;31.05;17.70;;;4.70;83.80;;;;;;4994724;28;20490;-74
2021/10/11 02:12:23;;;;;;;32.53;17.98;;;4.80;83.60;;;;;;5011127;28;20076;-75
2021/10/11 02:14:49;;;;;;;32.33;18.95;;;4.70;83.60;;;;;;5011019;28;20026;-74
2021/10/11 02:17:16;;;;;;;34.78;17.85;;;4.70;83.90;;;;;;4994396;28;20046;-75
2021/10/11 02:19:41;;;;;;;34.58;17.20;;;4.80;84.10;;;;;;4994584;28;20504;-74
2021/10/11 02:22:07;;;;;;;32.40;18.10;;;4.80;84.00;;;;;;4994756;28;20129;-74
2021/10/11 02:24:33;;;;;;;35.33;18.42;;;4.80;84.10;;;;;;4996550;28;20630;-74
2021/10/11 02:26:58;;;;;;;32.08;17.42;;;4.80;84.80;;;;;;4998280;28;20025;-74
2021/10/11 02:29:25;;;;;;;36.20;18.52;;;4.70;84.10;;;;;;4998303;28;20478;-74
2021/10/11 02:31:51;;;;;;;31.08;17.77;;;4.70;84.10;;;;;;5015787;28;20022;-74
2021/10/11 02:34:17;;;;;;;29.88;17.33;;;4.70;84.20;;;;;;5015844;28;20506;-73
2021/10/11 02:36:43;;;;;;;27.08;17.10;;;4.70;84.30;;;;;;4997985;28;20037;-74
2021/10/11 02:39:09;;;;;;;33.50;18.15;;;4.60;84.10;;;;;;5015694;28;20026;-75
2021/10/11 02:41:35;;;;;;;34.30;18.52;;;4.50;84.50;;;;;;4997978;28;20059;-76
2021/10/11 02:44:00;;;;;;;28.85;16.40;;;4.60;84.50;;;;;;4997983;28;20045;-75
2021/10/11 02:46:26;;;;;;;31.05;17.00;;;4.60;84.40;;;;;;4997743;28;20030;-76
2021/10/11 02:48:51;;;;;;;32.50;16.67;;;4.50;84.50;;;;;;4997482;28;20026;-75
2021/10/11 02:51:17;;;;;;;29.13;17.15;;;4.50;84.70;;;;;;4997587;28;20060;-76
2021/10/11 02:53:45;;;;;;;35.30;17.50;;;4.50;84.50;;;;;;4997800;28;20486;-76
2021/10/11 02:56:11;;;;;;;29.55;17.67;;;4.50;84.80;;;;;;4997675;28;20030;-75
2021/10/11 02:58:36;;;;;;;31.05;17.45;;;4.40;85.20;;;;;;4997369;28;20029;-74
2021/10/11 03:01:02;;;;;;;34.13;17.85;;;4.50;85.20;;;;;;4997534;28;20018;-74
2021/10/11 03:03:27;;;;;;;30.95;18.13;;;4.50;84.90;;;;;;4997604;28;20061;-74
2021/10/11 03:05:53;;;;;;;30.88;17.73;;;4.50;84.80;;;;;;4997397;28;20033;-74
2021/10/11 03:08:18;;;;;;;31.95;17.88;;;4.50;85.00;;;;;;5014830;28;20483;-74
2021/10/11 03:10:44;;;;;;;30.60;17.60;;;4.50;85.10;;;;;;4997444;28;20490;-74
2021/10/11 03:13:10;;;;;;;31.75;17.40;;;4.60;85.00;;;;;;4981350;28;20030;-75
2021/10/11 03:15:35;;;;;;;33.20;17.23;;;4.60;84.80;;;;;;4997214;28;20041;-74
2021/10/11 03:18:01;;;;;;;30.90;18.10;;;4.50;84.60;;;;;;4997019;28;20198;-75
2021/10/11 03:20:26;;;;;;;28.98;16.73;;;4.50;84.80;;;;;;4997042;28;20037;-72
2021/10/11 03:22:52;;;;;;;31.65;16.83;;;4.40;84.80;;;;;;4997212;28;20359;-72
2021/10/11 03:25:19;;;;;;;28.65;16.80;;;4.40;84.70;;;;;;4997151;28;20106;-74
2021/10/11 03:27:45;;;;;;;38.40;17.85;;;4.40;84.60;;;;;;4997015;28;20041;-74
2021/10/11 03:30:10;;;;;;;30.15;17.38;;;4.40;84.40;;;;;;4997217;28;20462;-74
2021/10/11 03:32:36;;;;;;;36.22;17.73;;;4.40;84.50;;;;;;4997113;28;20084;-74
2021/10/11 03:35:02;;;;;;;30.08;16.83;;;4.30;84.80;;;;;;4996150;28;20030;-74
2021/10/11 03:37:27;;;;;;;32.65;16.73;;;4.40;84.80;;;;;;4996600;28;20115;-74
2021/10/11 03:39:53;;;;;;;26.98;15.65;;;4.40;84.60;;;;;;4996616;28;20021;-74
2021/10/11 03:42:18;;;;;;;30.60;17.17;;;4.40;84.30;;;;;;4997098;28;20121;-74
2021/10/11 03:44:44;;;;;;;30.70;17.33;;;4.40;84.30;;;;;;4996466;28;20032;-73
2021/10/11 03:47:09;;;;;;;34.53;18.25;;;4.40;84.70;;;;;;4996450;28;20026;-73
2021/10/11 03:49:35;;;;;;;33.78;17.83;;;4.30;85.00;;;;;;4996533;28;20431;-74
2021/10/11 03:52:00;;;;;;;34.40;17.42;;;4.20;85.00;;;;;;4996468;28;20513;-73
2021/10/11 03:54:26;;;;;;;29.90;16.90;;;4.20;85.10;;;;;;4996863;28;20026;-74
2021/10/11 03:56:51;;;;;;;33.88;17.10;;;4.20;85.10;;;;;;4996321;28;20033;-74
2021/10/11 03:59:18;;;;;;;31.83;17.40;;;4.30;85.20;;;;;;4996612;28;20029;-73
2021/10/11 04:01:44;;;;;;;34.83;18.08;;;4.30;85.10;;;;;;5013905;28;20025;-74
2021/10/11 04:04:09;;;;;;;34.50;17.67;;;4.30;85.00;;;;;;4996343;28;20079;-74
2021/10/11 04:06:35;;;;;;;32.97;17.23;;;4.30;84.60;;;;;;4996057;28;20029;-74
2021/10/11 04:09:01;;;;;;;33.88;18.25;;;4.20;84.30;;;;;;4996322;28;20028;-74
2021/10/11 04:11:27;;;;;;;28.63;17.42;;;4.20;84.50;;;;;;4996174;28;20501;-73
2021/10/11 04:13:54;;;;;;;28.92;16.15;;;4.10;85.00;;;;;;4996275;28;20022;-73
2021/10/11 04:16:20;;;;;;;29.92;15.82;;;4.10;85.10;;;;;;4996311;28;20037;-74
2021/10/11 04:18:45;;;;;;;31.48;17.35;;;4.00;85.00;;;;;;4996101;28;20088;-74
2021/10/11 04:21:11;;;;;;;29.60;16.35;;;4.00;85.00;;;;;;4996183;28;20057;-74
2021/10/11 04:23:36;;;;;;;29.88;16.33;;;4.00;85.00;;;;;;5013620;28;20034;-74
2021/10/11 04:26:02;;;;;;;34.08;16.73;;;4.10;85.20;;;;;;4995870;28;20030;-74
2021/10/11 04:28:28;;;;;;;30.45;16.83;;;4.10;85.20;;;;;;4995930;28;20022;-74
2021/10/11 04:30:54;;;;;;;32.30;15.73;;;4.10;85.30;;;;;;4995608;28;20026;-74
2021/10/11 04:33:21;;;;;;;28.10;17.05;;;4.10;85.20;;;;;;4995879;28;20026;-74
2021/10/11 04:35:47;;;;;;;27.83;15.52;;;4.00;85.10;;;;;;5013190;28;20429;-74
2021/10/11 04:38:13;;;;;;;35.55;15.95;;;4.00;84.90;;;;;;4995813;28;20037;-74
2021/10/11 04:40:39;;;;;;;26.42;14.52;;;3.90;85.20;;;;;;4995321;28;20390;-74
2021/10/11 04:43:06;;;;;;;35.15;16.50;;;3.90;85.70;;;;;;5013229;28;20026;-74
2021/10/11 04:45:33;;;;;;;30.38;16.67;;;3.90;86.40;;;;;;4995116;28;20387;-74
2021/10/11 04:48:01;;;;;;;29.08;15.77;;;4.00;86.30;;;;;;4995196;28;20030;-74
2021/10/11 04:50:29;;;;;;;30.23;16.40;;;3.90;86.20;;;;;;4995486;28;20195;-74
2021/10/11 04:52:55;;;;;;;29.02;16.33;;;4.00;86.30;;;;;;5011729;28;20033;-74
2021/10/11 04:55:21;;;;;;;28.95;15.88;;;4.00;85.60;;;;;;4994789;28;20045;-72
2021/10/11 04:57:46;;;;;;;27.30;15.70;;;4.00;85.10;;;;;;4995305;28;20474;-72
2021/10/11 05:00:13;;;;;;;33.13;16.52;;;3.90;85.00;;;;;;4994936;28;20018;-73
2021/10/11 05:02:39;;;;;;;30.17;16.77;;;3.90;85.40;;;;;;5012849;28;20386;-73
2021/10/11 05:05:05;;;;;;;28.08;15.20;;;3.90;85.80;;;;;;4995318;28;20467;-74
2021/10/11 05:07:31;;;;;;;26.92;15.57;;;3.90;85.80;;;;;;4995191;28;20409;-73
2021/10/11 05:09:57;;;;;;;31.65;15.77;;;3.90;85.80;;;;;;4995178;28;20022;-73
2021/10/11 05:12:22;;;;;;;27.08;15.98;;;3.90;85.90;;;;;;4995262;28;20033;-74
2021/10/11 05:14:48;;;;;;;26.77;16.20;;;3.80;85.90;;;;;;4994952;28;20033;-73
2021/10/11 05:17:13;;;;;;;27.60;15.27;;;3.90;86.00;;;;;;5011567;28;20054;-73
2021/10/11 05:19:39;;;;;;;31.98;15.70;;;3.90;86.00;;;;;;5012181;28;20033;-76
2021/10/11 05:22:05;;;;;;;27.48;15.90;;;3.90;85.60;;;;;;4994554;28;20390;-74
2021/10/11 05:24:31;;;;;;;30.13;16.80;;;3.80;85.50;;;;;;4994485;28;20029;-73
2021/10/11 05:26:56;;;;;;;32.28;15.93;;;3.80;85.50;;;;;;5010936;28;20037;-74
2021/10/11 05:29:22;;;;;;;27.90;16.10;;;3.80;85.40;;;;;;5012212;28;20030;-73
2021/10/11 05:31:50;;;;;;;27.73;15.35;;;3.80;85.30;;;;;;4994541;28;20026;-74
2021/10/11 05:34:16;;;;;;;28.27;15.60;;;3.90;84.90;;;;;;4994626;28;20033;-74
2021/10/11 05:36:42;;;;;;;26.85;14.88;;;3.90;84.80;;;;;;4994400;28;20042;-74
2021/10/11 05:39:08;;;;;;;28.30;14.88;;;3.80;84.80;;;;;;4994356;28;20032;-74
2021/10/11 05:41:34;;;;;;;26.77;14.57;;;3.80;84.90;;;;;;4994843;28;20022;-75
2021/10/11 05:43:59;;;;;;;32.75;15.15;;;3.90;85.10;;;;;;4994532;28;20558;-75
2021/10/11 05:46:25;;;;;;;25.58;13.77;;;3.90;85.00;;;;;;4994790;28;20398;-75
2021/10/11 05:48:51;;;;;;;21.17;13.75;;;3.70;84.00;;;;;;4994451;28;20076;-74
2021/10/11 05:51:16;;;;;;;20.95;12.85;;;3.70;84.00;;;;;;4994487;28;20022;-74
2021/10/11 05:53:42;;;;;;;20.70;12.15;;;3.70;84.50;;;;;;4994071;28;20033;-74
2021/10/11 05:56:07;;;;;;;21.35;12.65;;;3.80;84.80;;;;;;4994314;28;20026;-75
2021/10/11 05:58:33;;;;;;;23.88;12.68;;;3.90;85.10;;;;;;4994762;28;20026;-75
2021/10/11 06:01:00;;;;;;;26.35;14.90;;;4.00;85.00;;;;;;4997855;28;20042;-75
2021/10/11 06:03:26;;;;;;;25.90;14.93;;;4.00;84.00;;;;;;4998235;28;20026;-75
2021/10/11 06:05:52;;;;;;;30.08;15.02;;;4.10;83.60;;;;;;4997705;28;20033;-74
2021/10/11 06:08:19;;;;;;;32.40;15.38;;;4.10;83.00;;;;;;4997954;28;20119;-74
2021/10/11 06:10:45;;;;;;;26.88;14.02;;;4.10;82.90;;;;;;4997946;28;20022;-74
2021/10/11 06:13:11;;;;;;;30.48;15.63;;;4.10;82.70;;;;;;5015681;28;20038;-74
2021/10/11 06:15:36;;;;;;;28.42;15.45;;;4.10;82.40;;;;;;4997786;28;20037;-75
2021/10/11 06:18:02;;;;;;;28.60;14.55;;;4.00;82.30;;;;;;4997754;28;20144;-73
2021/10/11 06:20:28;;;;;;;25.92;14.32;;;4.00;82.50;;;;;;4997344;28;20092;-74
2021/10/11 06:22:53;;;;;;;24.33;14.15;;;4.10;82.70;;;;;;4996974;28;20075;-73
2021/10/11 06:25:19;;;;;;;19.13;11.80;;;4.10;82.40;;;;;;5014587;28;20033;-74
2021/10/11 06:27:45;;;;;;;19.52;12.25;;;4.10;81.70;;;;;;5014904;28;20033;-73
2021/10/11 06:30:12;;;;;;;31.17;14.68;;;4.20;81.70;;;;;;4997346;28;20022;-74
2021/10/11 06:32:37;;;;;;;24.00;12.90;;;4.20;81.80;;;;;;4997705;28;20111;-73
2021/10/11 06:35:04;;;;;;;27.95;12.95;;;4.30;82.00;;;;;;4997758;28;20072;-74
2021/10/11 06:37:30;;;;;;;23.55;13.10;;;4.40;81.60;;;;;;4997627;28;20103;-74
2021/10/11 06:39:55;;;;;;;28.95;13.63;;;4.40;81.60;;;;;;4997537;28;20099;-74
2021/10/11 06:42:21;;;;;;;25.35;13.45;;;4.50;81.60;;;;;;5014915;28;20541;-74
2021/10/11 06:44:48;;;;;;;26.80;12.95;;;4.60;81.40;;;;;;5014784;28;20038;-75
2021/10/11 06:47:13;;;;;;;22.67;13.10;;;4.60;81.10;;;;;;4996993;28;20455;-74
2021/10/11 06:49:39;;;;;;;23.25;13.43;;;4.80;80.90;;;;;;4997148;28;20026;-74
2021/10/11 06:52:05;;;;;;;23.20;12.85;;;4.80;80.30;;;;;;4997742;28;20080;-75
2021/10/11 06:54:31;;;;;;;30.92;14.48;;;4.90;80.30;;;;;;4997546;28;20415;-74
2021/10/11 06:56:57;;;;;;;30.23;14.23;;;5.00;80.00;;;;;;4997289;28;20475;-74
2021/10/11 06:59:22;;;;;;;27.05;13.45;;;5.10;79.90;;;;;;4996916;28;20025;-74
2021/10/11 07:01:48;;;;;;;27.55;13.93;;;5.20;79.50;;;;;;4996641;28;20045;-74
2021/10/11 07:04:15;;;;;;;24.05;13.00;;;5.40;79.20;;;;;;4997165;28;20022;-74
2021/10/11 07:06:41;;;;;;;21.90;12.30;;;5.50;78.80;;;;;;4996897;28;20037;-75
2021/10/11 07:09:07;;;;;;;22.77;12.90;;;5.60;78.20;;;;;;4997219;28;20478;-75
2021/10/11 07:11:33;;;;;;;25.02;12.02;;;5.70;77.80;;;;;;4995741;28;20026;-74
2021/10/11 07:13:58;;;;;;;22.42;12.18;;;5.60;77.60;;;;;;4997530;28;20099;-74
2021/10/11 07:16:24;;;;;;;25.13;13.23;;;5.70;77.90;;;;;;5014511;28;20048;-76
2021/10/11 07:18:49;;;;;;;23.73;11.80;;;5.60;78.40;;;;;;4996886;28;20022;-76
2021/10/11 07:21:15;;;;;;;21.02;11.18;;;5.70;78.50;;;;;;4997186;28;20037;-76
2021/10/11 07:23:41;;;;;;;21.13;10.43;;;5.80;77.20;;;;;;4996817;28;20129;-76
2021/10/11 07:26:07;;;;;;;18.00;10.35;;;5.90;77.10;;;;;;4996811;28;20033;-74
2021/10/11 07:28:33;;;;;;;18.70;9.90;;;6.00;77.00;;;;;;5014550;28;20027;-75
2021/10/11 07:30:59;;;;;;;24.25;11.45;;;6.20;76.90;;;;;;4996822;28;20028;-75
2021/10/11 07:33:25;;;;;;;21.08;11.18;;;6.30;76.50;;;;;;5000206;28;20030;-75
2021/10/11 07:35:51;;;;;;;17.70;11.20;;;6.40;75.90;;;;;;5000116;28;20026;-75
2021/10/11 07:38:19;;;;;;;20.40;12.13;;;6.50;76.20;;;;;;4999925;28;20113;-75
2021/10/11 07:40:45;;;;;;;19.17;12.25;;;6.70;76.20;;;;;;5001232;28;20088;-75
2021/10/11 07:43:12;;;;;;;29.73;13.07;;;6.90;76.30;;;;;;5015622;28;20030;-77
2021/10/11 07:45:39;;;;;;;27.98;13.18;;;7.30;87.40;;;;;;4996804;28;20545;-78
2021/10/11 07:48:05;;;;;;;22.08;13.25;;;7.80;90.00;;;;;;4996658;28;20053;-78
2021/10/11 07:50:31;;;;;;;21.45;10.80;;;8.90;92.80;;;;;;4996636;28;20022;-79
2021/10/11 07:52:57;;;;;;;18.17;10.23;;;9.40;87.10;;;;;;4996230;28;20032;-79
2021/10/11 07:55:23;;;;;;;16.55;10.45;;;9.70;80.80;;;;;;4996318;28;20072;-80
2021/10/11 07:57:58;;;;;;;16.95;9.95;;;10.20;74.90;;;;;;4996248;28;20533;-83
2021/10/11 08:00:25;;;;;;;26.15;10.23;;;10.80;72.70;;;;;;4996532;28;20483;-83
2021/10/11 08:03:14;;;;;;;17.02;9.35;;;11.00;69.10;;;;;;5011426;28;20044;-82
2021/10/11 08:06:22;;;;;;;17.40;11.23;;;11.20;70.80;;;;;;4996572;28;20045;-83
2021/10/11 08:09:32;;;;;;;15.38;9.18;;;11.40;66.10;;;;;;5014014;28;20117;-82
2021/10/11 08:12:01;;;;;;;19.15;9.55;;;11.70;65.40;;;;;;4978554;28;20053;-82
2021/10/11 08:14:28;;;;;;;18.17;10.45;;;12.00;63.40;;;;;;5014297;28;20034;-82
2021/10/11 08:16:53;;;;;;;18.65;10.18;;;12.10;61.80;;;;;;4980913;28;20054;-82
2021/10/11 08:19:19;;;;;;;15.25;8.65;;;12.10;59.90;;;;;;4998137;28;20038;-82
2021/10/11 08:21:45;;;;;;;11.98;7.75;;;12.30;59.00;;;;;;4981546;28;20056;-81
2021/10/11 08:24:14;;;;;;;14.93;7.78;;;12.40;58.80;;;;;;4981266;28;20080;-82
2021/10/11 08:26:47;;;;;;;15.50;8.77;;;12.50;58.10;;;;;;4981060;28;20486;-82
2021/10/11 08:29:16;;;;;;;15.80;8.65;;;12.60;57.40;;;;;;5014066;28;20060;-82
2021/10/11 08:32:03;;;;;;;14.50;8.07;;;12.60;57.80;;;;;;5014012;28;20025;-85
2021/10/11 08:34:31;;;;;;;15.35;8.35;;;12.60;57.80;;;;;;4997950;28;20041;-81
2021/10/11 08:37:07;;;;;;;14.18;7.85;;;12.50;56.70;;;;;;4997924;28;20034;-76
2021/10/11 08:39:33;;;;;;;14.10;8.18;;;12.40;57.10;;;;;;5012060;28;20045;-75
2021/10/11 08:41:59;;;;;;;14.10;8.25;;;12.40;57.40;;;;;;4995346;28;20479;-73
2021/10/11 08:44:24;;;;;;;12.73;8.43;;;12.30;57.20;;;;;;4995042;28;20029;-74
2021/10/11 08:46:50;;;;;;;16.38;9.18;;;12.30;56.70;;;;;;4995295;28;20033;-74
2021/10/11 08:49:16;;;;;;;20.00;9.13;;;12.30;57.20;;;;;;5013044;28;20026;-73
2021/10/11 08:51:41;;;;;;;15.93;9.38;;;12.20;57.00;;;;;;4996089;28;20107;-74
2021/10/11 08:54:08;;;;;;;16.58;9.27;;;12.00;56.60;;;;;;4995786;28;20026;-74
2021/10/11 08:56:34;;;;;;;15.52;9.13;;;11.90;57.30;;;;;;4979091;28;20076;-74
2021/10/11 08:58:59;;;;;;;17.75;9.00;;;11.80;58.10;;;;;;4995248;28;20490;-74
2021/10/11 09:01:25;;;;;;;16.67;9.43;;;11.80;57.20;;;;;;4994993;28;20358;-74
2021/10/11 09:03:51;;;;;;;14.43;9.15;;;12.00;57.70;;;;;;4995210;28;20030;-74
2021/10/11 09:06:16;;;;;;;16.58;9.60;;;12.30;57.70;;;;;;4994921;28;20026;-74
2021/10/11 09:08:42;;;;;;;16.50;9.88;;;12.60;58.30;;;;;;5011524;28;20056;-73
2021/10/11 09:11:10;;;;;;;19.45;10.05;;;12.60;56.00;;;;;;4995254;28;20026;-74
2021/10/11 09:13:44;;;;;;;13.85;8.85;;;12.70;56.10;;;;;;4994962;28;20026;-74
2021/10/11 09:16:23;;;;;;;14.40;8.47;;;12.90;56.10;;;;;;4994907;28;20034;-73
2021/10/11 09:18:53;;;;;;;15.50;9.70;;;13.20;55.80;;;;;;5011456;28;20536;-75
2021/10/11 09:21:32;;;;;;;17.95;9.93;;;13.30;53.20;;;;;;5012895;28;20068;-75
2021/10/11 09:24:14;;;;;;;14.35;8.88;;;13.30;53.10;;;;;;5011283;28;20030;-75
2021/10/11 09:26:48;;;;;;;17.25;9.52;;;13.70;53.10;;;;;;5012384;28;20022;-75
2021/10/11 09:29:16;;;;;;;12.70;8.60;;;13.70;50.70;;;;;;5013526;28;20125;-75
2021/10/11 09:31:47;;;;;;;16.58;9.57;;;13.80;48.70;;;;;;4995592;28;20368;-75
2021/10/11 09:34:19;;;;;;;19.38;9.70;;;13.70;47.40;;;;;;5011499;28;20029;-75
2021/10/11 09:37:04;;;;;;;16.02;9.98;;;13.50;47.50;;;;;;5012443;28;20111;-75
2021/10/11 09:39:33;;;;;;;23.55;12.30;;;13.10;47.90;;;;;;5012493;28;20034;-75
2021/10/11 09:42:00;;;;;;;19.13;11.60;;;13.00;51.40;;;;;;4994610;28;20030;-75
2021/10/11 09:44:27;;;;;;;20.92;12.35;;;13.10;51.90;;;;;;4994265;28;20088;-74
2021/10/11 09:46:57;;;;;;;20.67;11.95;;;12.80;52.60;;;;;;4994181;28;20045;-74
2021/10/11 09:49:27;;;;;;;17.33;11.23;;;13.00;53.20;;;;;;4994720;28;20371;-74
2021/10/11 09:51:54;;;;;;;19.67;9.38;;;13.20;52.00;;;;;;4993773;28;20026;-75
2021/10/11 09:54:20;;;;;;;20.63;11.05;;;13.30;50.50;;;;;;5011482;28;20030;-75
2021/10/11 09:56:46;;;;;;;18.50;11.57;;;13.50;50.10;;;;;;4994418;28;20026;-75
2021/10/11 09:59:13;;;;;;;18.42;12.05;;;13.70;50.70;;;;;;5012043;28;20030;-76
2021/10/11 10:01:45;;;;;;;20.15;11.85;;;13.30;51.70;;;;;;5011993;28;20037;-75
2021/10/11 10:04:17;;;;;;;20.63;12.38;;;13.40;52.50;;;;;;5011671;28;20018;-75
2021/10/11 10:06:46;;;;;;;18.55;11.55;;;13.40;52.60;;;;;;5009839;28;20117;-75
2021/10/11 10:09:13;;;;;;;18.02;11.25;;;13.40;52.10;;;;;;4994731;28;20060;-75
2021/10/11 10:11:39;;;;;;;19.27;11.93;;;13.30;53.90;;;;;;4994093;28;20088;-74
2021/10/11 10:14:06;;;;;;;18.17;10.60;;;13.30;52.60;;;;;;4993953;28;20041;-75
2021/10/11 10:16:33;;;;;;;15.05;10.18;;;13.70;52.20;;;;;;5011838;28;20046;-76
2021/10/11 10:19:10;;;;;;;19.48;10.80;;;14.10;51.40;;;;;;5012011;28;20026;-75
2021/10/11 10:21:39;;;;;;;16.70;10.57;;;14.60;50.00;;;;;;5011934;28;20102;-76
2021/10/11 10:24:07;;;;;;;14.85;9.45;;;15.20;48.70;;;;;;4994412;28;20029;-75
2021/10/11 10:26:36;;;;;;;15.63;10.30;;;15.60;47.20;;;;;;5011596;28;20490;-76
2021/10/11 10:29:13;;;;;;;16.00;9.57;;;16.10;45.60;;;;;;5011962;28;20036;-77
2021/10/11 10:31:39;;;;;;;17.33;9.07;;;16.40;44.00;;;;;;5011937;28;20080;-77
2021/10/11 10:34:23;;;;;;;14.90;10.00;;;16.60;42.50;;;;;;5011802;28;20103;-78
2021/10/11 10:37:05;;;;;;;14.05;9.75;;;16.30;42.50;;;;;;4994552;28;20022;-77
2021/10/11 10:39:49;;;;;;;17.00;9.75;;;16.00;44.10;;;;;;5011645;28;20578;-76
2021/10/11 10:42:29;;;;;;;12.95;9.20;;;16.20;43.80;;;;;;4994199;28;20475;-76
2021/10/11 10:44:57;;;;;;;13.63;9.77;;;16.10;43.40;;;;;;4994887;28;20022;-76
2021/10/11 10:47:33;;;;;;;17.02;10.27;;;15.70;43.10;;;;;;4996954;28;20038;-77
2021/10/11 10:49:59;;;;;;;17.08;10.32;;;14.80;46.70;;;;;;4996921;28;20030;-76
2021/10/11 10:52:25;;;;;;;17.75;11.20;;;14.50;48.80;;;;;;4996975;28;20030;-76
2021/10/11 10:54:58;;;;;;;14.75;9.43;;;14.50;48.50;;;;;;4996092;28;20382;-77
2021/10/11 10:57:27;;;;;;;16.88;9.75;;;14.80;47.90;;;;;;4996360;28;20022;-77
2021/10/11 10:59:55;;;;;;;16.95;10.35;;;15.40;47.20;;;;;;4996672;28;20029;-76
2021/10/11 11:02:21;;;;;;;13.60;9.25;;;16.00;46.40;;;;;;4996556;28;20026;-76
2021/10/11 11:05:02;;;;;;;16.15;9.27;;;16.20;44.90;;;;;;4996460;28;20486;-76
2021/10/11 11:07:31;;;;;;;14.70;8.93;;;15.80;44.00;;;;;;5014885;28;20044;-76
2021/10/11 11:09:59;;;;;;;14.93;8.52;;;15.80;45.60;;;;;;5013611;28;20518;-77
2021/10/11 11:12:33;;;;;;;14.32;8.57;;;16.30;45.10;;;;;;4996754;28;20095;-77
2021/10/11 11:15:01;;;;;;;14.07;6.97;;;16.90;40.90;;;;;;5014465;28;20029;-76
2021/10/11 11:17:40;;;;;;;14.77;7.60;;;17.10;38.10;;;;;;5013948;28;20462;-75
2021/10/11 11:20:23;;;;;;;11.15;6.80;;;16.90;39.00;;;;;;5014171;28;20022;-76
2021/10/11 11:22:50;;;;;;;12.23;6.25;;;16.90;37.40;;;;;;4981120;28;20118;-77
2021/10/11 11:25:15;;;;;;;10.02;5.60;;;17.20;35.10;;;;;;4980210;28;20061;-75
2021/10/11 11:27:44;;;;;;;12.88;6.97;;;17.60;34.70;;;;;;4995943;28;20057;-75
2021/10/11 11:30:15;;;;;;;11.05;6.57;;;18.10;35.20;;;;;;4996889;28;20113;-75
2021/10/11 11:32:49;;;;;;;10.60;7.07;;;18.60;35.00;;;;;;4997021;28;20022;-76
2021/10/11 11:35:27;;;;;;;9.23;6.45;;;19.10;34.30;;;;;;4996847;28;20025;-76
2021/10/11 11:37:56;;;;;;;8.60;6.38;;;19.10;32.60;;;;;;4996919;28;20032;-76
2021/10/11 11:40:29;;;;;;;7.80;6.10;;;19.40;32.20;;;;;;4997197;28;20022;-76
2021/10/11 11:42:55;;;;;;;10.20;5.65;;;19.60;32.60;;;;;;4998211;28;20034;-75
2021/10/11 11:45:23;;;;;;;10.55;5.97;;;19.80;31.90;;;;;;4998973;28;20018;-76
2021/10/11 11:47:50;;;;;;;9.30;5.88;;;19.90;31.50;;;;;;5010233;28;20022;-78
2021/10/11 11:50:25;;;;;;;10.20;6.25;;;20.00;30.90;;;;;;5031591;28;20026;-77
2021/10/11 11:53:02;;;;;;;11.88;6.90;;;20.30;31.30;;;;;;5017113;28;20108;-77
2021/10/11 11:55:28;;;;;;;14.00;7.10;;;20.60;31.00;;;;;;5016910;28;20033;-77
2021/10/11 11:57:56;;;;;;;9.00;6.38;;;20.80;30.40;;;;;;5017115;28;20017;-79
2021/10/11 12:00:23;;;;;;;8.80;6.63;;;21.10;30.50;;;;;;5035582;28;20026;-77
2021/10/11 12:02:50;;;;;;;9.93;6.15;;;21.20;30.40;;;;;;5016663;28;20036;-77
2021/10/11 12:05:16;;;;;;;16.27;7.50;;;21.10;29.80;;;;;;5032401;28;20061;-75
2021/10/11 12:07:43;;;;;;;8.90;6.10;;;21.10;30.10;;;;;;5007182;28;20160;-77
2021/10/11 12:10:15;;;;;;;10.55;6.65;;;20.80;30.50;;;;;;4996473;28;20044;-76
2021/10/11 12:12:41;;;;;;;10.45;6.20;;;20.30;31.20;;;;;;4996363;28;20030;-75
2021/10/11 12:15:17;;;;;;;8.07;5.40;;;19.50;31.60;;;;;;5012415;28;20030;-76
2021/10/11 12:17:42;;;;;;;8.43;5.05;;;19.70;31.90;;;;;;5012508;28;20060;-75
2021/10/11 12:20:09;;;;;;;11.02;5.05;;;20.20;30.90;;;;;;5012656;28;20041;-75
2021/10/11 12:22:35;;;;;;;8.90;4.50;;;20.70;30.00;;;;;;4995399;28;20117;-76
2021/10/11 12:25:05;;;;;;;6.93;4.90;;;21.00;28.40;;;;;;4995930;28;20026;-75
2021/10/11 12:27:31;;;;;;;9.23;4.78;;;20.80;26.60;;;;;;5013087;28;20034;-75
2021/10/11 12:30:01;;;;;;;7.38;4.63;;;20.70;26.70;;;;;;4995491;28;20029;-75
2021/10/11 12:32:33;;;;;;;11.27;4.70;;;21.00;26.00;;;;;;4995701;28;20022;-74
2021/10/11 12:35:00;;;;;;;11.23;4.45;;;21.00;25.10;;;;;;4995689;28;20029;-76
2021/10/11 12:37:40;;;;;;;6.57;3.92;;;21.10;24.70;;;;;;5013274;28;20030;-76